createdAt,value
2023-05-12T00:00:26.721Z,0.52
2023-05-12T00:01:28.078Z,0.52
2023-05-12T00:02:27.341Z,0.52
2023-05-12T00:03:27.775Z,0.52
2023-05-12T00:04:27.068Z,0.53
2023-05-12T00:05:27.686Z,0.52
2023-05-12T00:06:27.700Z,0.51
2023-05-12T00:07:26.705Z,0.51
2023-05-12T00:08:26.714Z,0.51
2023-05-12T00:09:26.707Z,0.51
2023-05-12T00:10:27.723Z,0.52
2023-05-12T00:11:26.717Z,0.52
2023-05-12T00:12:26.714Z,0.52
2023-05-12T00:13:27.772Z,0.51
2023-05-12T00:14:26.728Z,0.52
2023-05-12T00:15:26.717Z,0.52
2023-05-12T00:16:26.869Z,0.52
2023-05-12T00:17:27.826Z,0.52
2023-05-12T00:18:27.755Z,0.53
2023-05-12T00:19:26.747Z,0.52
2023-05-12T00:20:27.733Z,0.52
2023-05-12T00:21:27.772Z,0.52
2023-05-12T00:22:27.741Z,0.52
2023-05-12T00:23:26.752Z,0.52
2023-05-12T00:24:26.786Z,0.52
2023-05-12T00:25:27.773Z,0.54
2023-05-12T00:26:26.811Z,0.52
2023-05-12T00:27:26.806Z,0.53
2023-05-12T00:28:27.800Z,0.51
2023-05-12T00:29:26.805Z,0.52
2023-05-12T00:30:27.802Z,0.52
2023-05-12T00:31:27.854Z,0.53
2023-05-12T00:32:27.934Z,0.52
2023-05-12T00:33:26.819Z,0.53
2023-05-12T00:34:27.815Z,0.51
2023-05-12T00:35:26.817Z,0.52
2023-05-12T00:36:27.854Z,0.52
2023-05-12T00:37:27.824Z,0.52
2023-05-12T00:38:26.819Z,0.52
2023-05-12T00:39:27.841Z,0.53
2023-05-12T00:40:27.912Z,0.52
2023-05-12T00:41:27.842Z,0.52
2023-05-12T00:42:26.862Z,0.52
2023-05-12T00:43:26.866Z,0.51
2023-05-12T00:44:27.860Z,0.52
2023-05-12T00:45:26.902Z,0.52
2023-05-12T00:46:26.905Z,0.52
2023-05-12T00:47:26.934Z,0.52
2023-05-12T00:48:26.911Z,0.53
2023-05-12T00:49:26.891Z,0.51
2023-05-12T00:50:27.916Z,0.52
2023-05-12T00:51:26.894Z,0.52
2023-05-12T00:52:27.905Z,0.52
2023-05-12T00:53:37.583Z,0.50
2023-05-12T00:54:27.968Z,0.51
2023-05-12T00:55:26.889Z,0.51
2023-05-12T00:56:26.941Z,0.51
2023-05-12T00:57:27.927Z,0.52
2023-05-12T00:58:27.863Z,0.52
2023-05-12T00:59:26.866Z,0.51
2023-05-12T01:00:26.856Z,0.52
2023-05-12T01:01:27.921Z,0.53
2023-05-12T01:02:27.992Z,0.51
2023-05-12T01:03:27.942Z,0.51
2023-05-12T01:04:26.948Z,0.52
2023-05-12T01:05:27.805Z,0.51
2023-05-12T01:06:26.813Z,0.51
2023-05-12T01:07:26.800Z,0.51
2023-05-12T01:08:26.784Z,0.51
2023-05-12T01:09:26.801Z,0.52
2023-05-12T01:10:26.786Z,0.51
2023-05-12T01:11:27.798Z,0.51
2023-05-12T01:12:27.767Z,0.51
2023-05-12T01:13:27.773Z,0.52
2023-05-12T01:14:26.752Z,0.51
2023-05-12T01:15:27.818Z,0.52
2023-05-12T01:16:27.741Z,0.51
2023-05-12T01:17:27.851Z,0.52
2023-05-12T01:18:26.921Z,0.51
2023-05-12T01:19:27.723Z,0.52
2023-05-12T01:20:26.754Z,0.53
2023-05-12T01:21:27.706Z,0.51
2023-05-12T01:22:27.711Z,0.53
2023-05-12T01:23:27.708Z,0.52
2023-05-12T01:24:26.690Z,0.50
2023-05-12T01:25:26.677Z,0.52
2023-05-12T01:26:27.683Z,0.53
2023-05-12T01:27:26.677Z,0.52
2023-05-12T01:28:26.666Z,0.51
2023-05-12T01:29:26.645Z,0.52
2023-05-12T01:30:26.638Z,0.53
2023-05-12T01:31:26.692Z,0.51
2023-05-12T01:32:26.639Z,0.53
2023-05-12T01:33:26.636Z,0.51
2023-05-12T01:34:26.610Z,0.52
2023-05-12T01:35:27.602Z,0.51
2023-05-12T01:36:26.617Z,0.52
2023-05-12T01:37:27.571Z,0.52
2023-05-12T01:38:27.600Z,0.53
2023-05-12T01:39:26.593Z,0.53
2023-05-12T01:40:27.574Z,0.52
2023-05-12T01:41:26.549Z,0.51
2023-05-12T01:42:27.536Z,0.52
2023-05-12T01:43:27.529Z,0.50
2023-05-12T01:44:26.534Z,0.52
2023-05-12T01:45:26.526Z,0.51
2023-05-12T01:46:27.580Z,0.52
2023-05-12T01:47:27.547Z,0.51
2023-05-12T01:48:27.490Z,0.52
2023-05-12T01:49:26.507Z,0.53
2023-05-12T01:50:27.495Z,0.52
2023-05-12T01:51:27.502Z,0.52
2023-05-12T01:52:27.503Z,0.52
2023-05-12T01:53:27.482Z,0.51
2023-05-12T01:54:26.485Z,0.52
2023-05-12T01:55:27.453Z,0.52
2023-05-12T01:56:26.456Z,0.52
2023-05-12T01:57:26.441Z,0.53
2023-05-12T01:58:27.422Z,0.53
2023-05-12T01:59:27.492Z,0.52
2023-05-12T02:00:27.430Z,0.51
2023-05-12T02:01:27.417Z,0.53
2023-05-12T02:02:26.506Z,0.51
2023-05-12T02:03:26.443Z,0.52
2023-05-12T02:04:27.386Z,0.52
2023-05-12T02:05:27.375Z,0.52
2023-05-12T02:06:26.454Z,0.52
2023-05-12T02:07:26.362Z,0.52
2023-05-12T02:08:26.400Z,0.52
2023-05-12T02:09:27.470Z,0.51
2023-05-12T02:10:27.674Z,0.51
2023-05-12T02:11:27.819Z,0.51
2023-05-12T02:12:26.952Z,0.52
2023-05-12T02:13:28.529Z,0.51
2023-05-12T02:14:27.343Z,0.52
2023-05-12T02:15:26.596Z,0.51
2023-05-12T02:16:27.582Z,0.52
2023-05-12T02:17:27.991Z,0.52
2023-05-12T02:18:26.340Z,0.52
2023-05-12T02:19:26.286Z,0.52
2023-05-12T02:20:27.281Z,0.52
2023-05-12T02:21:26.271Z,0.52
2023-05-12T02:22:27.274Z,0.52
2023-05-12T02:23:27.284Z,0.51
2023-05-12T02:24:27.311Z,0.51
2023-05-12T02:25:27.231Z,0.51
2023-05-12T02:26:27.225Z,0.51
2023-05-12T02:27:26.228Z,0.52
2023-05-12T02:28:26.212Z,0.52
2023-05-12T02:29:27.235Z,0.52
2023-05-12T02:30:27.213Z,0.51
2023-05-12T02:31:27.218Z,0.52
2023-05-12T02:32:27.199Z,0.52
2023-05-12T02:33:26.186Z,0.51
2023-05-12T02:34:27.185Z,0.51
2023-05-12T02:35:27.239Z,0.51
2023-05-12T02:36:27.188Z,0.51
2023-05-12T02:37:26.177Z,0.50
2023-05-12T02:38:27.192Z,0.52
2023-05-12T02:39:26.173Z,0.51
2023-05-12T02:40:26.203Z,0.52
2023-05-12T02:41:27.184Z,0.51
2023-05-12T02:42:26.182Z,0.52
2023-05-12T02:43:27.178Z,0.50
2023-05-12T02:44:26.189Z,0.51
2023-05-12T02:45:27.157Z,0.51
2023-05-12T02:46:27.203Z,0.51
2023-05-12T02:47:26.173Z,0.51
2023-05-12T02:48:26.185Z,0.52
2023-05-12T02:49:26.185Z,0.52
2023-05-12T02:50:27.163Z,0.52
2023-05-12T02:51:26.161Z,0.51
2023-05-12T02:52:26.156Z,0.51
2023-05-12T02:53:27.187Z,0.51
2023-05-12T02:54:27.166Z,0.52
2023-05-12T02:55:27.168Z,0.51
2023-05-12T02:56:27.203Z,0.51
2023-05-12T02:57:27.181Z,0.51
2023-05-12T02:58:27.156Z,0.51
2023-05-12T02:59:26.162Z,0.52
2023-05-12T03:00:26.169Z,0.53
2023-05-12T03:01:26.176Z,0.52
2023-05-12T03:02:27.269Z,0.52
2023-05-12T03:03:27.269Z,0.51
2023-05-12T03:04:27.169Z,0.51
2023-05-12T03:05:27.165Z,0.52
2023-05-12T03:06:27.141Z,0.51
2023-05-12T03:07:26.170Z,0.51
2023-05-12T03:08:27.130Z,0.52
2023-05-12T03:09:26.156Z,0.52
2023-05-12T03:10:27.132Z,0.50
2023-05-12T03:11:26.152Z,0.52
2023-05-12T03:12:26.159Z,0.52
2023-05-12T03:13:27.145Z,0.52
2023-05-12T03:14:26.139Z,0.52
2023-05-12T03:15:27.170Z,0.50
2023-05-12T03:16:27.165Z,0.51
2023-05-12T03:17:27.227Z,0.52
2023-05-12T03:18:26.130Z,0.51
2023-05-12T03:19:26.141Z,0.51
2023-05-12T03:20:26.124Z,0.52
2023-05-12T03:21:27.105Z,0.51
2023-05-12T03:22:27.117Z,0.51
2023-05-12T03:23:26.130Z,0.51
2023-05-12T03:24:26.108Z,0.51
2023-05-12T03:25:27.111Z,0.52
2023-05-12T03:26:26.147Z,0.51
2023-05-12T03:27:27.115Z,0.51
2023-05-12T03:28:26.147Z,0.51
2023-05-12T03:29:27.151Z,0.51
2023-05-12T03:30:26.112Z,0.52
2023-05-12T03:31:27.223Z,0.52
2023-05-12T03:32:28.751Z,0.51
2023-05-12T03:33:27.116Z,0.51
2023-05-12T03:34:26.123Z,0.53
2023-05-12T03:35:26.099Z,0.52
2023-05-12T03:36:27.117Z,0.52
2023-05-12T03:37:26.064Z,0.52
2023-05-12T03:38:26.058Z,0.51
2023-05-12T03:39:27.068Z,0.51
2023-05-12T03:40:26.101Z,0.52
2023-05-12T03:41:26.079Z,0.51
2023-05-12T03:42:26.031Z,0.52
2023-05-12T03:43:27.030Z,0.51
2023-05-12T03:44:26.050Z,0.50
2023-05-12T03:45:27.042Z,0.51
2023-05-12T03:46:27.117Z,0.51
2023-05-12T03:47:29.023Z,0.51
2023-05-12T03:48:27.057Z,0.51
2023-05-12T03:49:25.992Z,0.52
2023-05-12T03:50:26.990Z,0.51
2023-05-12T03:51:27.051Z,0.52
2023-05-12T03:52:26.979Z,0.51
2023-05-12T03:53:26.989Z,0.51
2023-05-12T03:54:26.964Z,0.51
2023-05-12T03:55:25.963Z,0.51
2023-05-12T03:56:26.932Z,0.51
2023-05-12T03:57:26.967Z,0.51
2023-05-12T03:58:25.957Z,0.51
2023-05-12T03:59:26.912Z,0.51
2023-05-12T04:00:26.963Z,0.51
2023-05-12T04:01:26.901Z,0.50
2023-05-12T04:02:26.084Z,0.51
2023-05-12T04:03:26.956Z,0.51
2023-05-12T04:04:25.883Z,0.52
2023-05-12T04:05:25.870Z,0.51
2023-05-12T04:06:26.860Z,0.51
2023-05-12T04:07:26.867Z,0.51
2023-05-12T04:08:25.850Z,0.51
2023-05-12T04:09:26.864Z,0.51
2023-05-12T04:10:26.272Z,0.51
2023-05-12T04:11:26.837Z,0.51
2023-05-12T04:12:26.828Z,0.51
2023-05-12T04:13:25.807Z,0.50
2023-05-12T04:14:39.105Z,0.51
2023-05-12T04:15:26.892Z,0.51
2023-05-12T04:16:26.840Z,0.51
2023-05-12T04:17:25.866Z,0.51
2023-05-12T04:18:25.964Z,0.51
2023-05-12T04:19:26.751Z,0.51
2023-05-12T04:20:25.772Z,0.51
2023-05-12T04:21:25.766Z,0.50
2023-05-12T04:22:26.789Z,0.51
2023-05-12T04:23:25.756Z,0.51
2023-05-12T04:24:26.784Z,0.51
2023-05-12T04:25:26.727Z,0.52
2023-05-12T04:26:25.725Z,0.51
2023-05-12T04:27:26.720Z,0.51
2023-05-12T04:28:26.724Z,0.51
2023-05-12T04:29:26.712Z,0.51
2023-05-12T04:30:25.702Z,0.51
2023-05-12T04:31:26.717Z,0.51
2023-05-12T04:32:26.734Z,0.51
2023-05-12T04:33:25.684Z,0.50
2023-05-12T04:34:26.682Z,0.51
2023-05-12T04:35:26.660Z,0.51
2023-05-12T04:36:26.664Z,0.51
2023-05-12T04:37:26.653Z,0.50
2023-05-12T04:38:25.657Z,0.51
2023-05-12T04:39:26.621Z,0.51
2023-05-12T04:40:25.605Z,0.51
2023-05-12T04:41:25.597Z,0.51
2023-05-12T04:42:25.608Z,0.51
2023-05-12T04:44:25.607Z,0.51
2023-05-12T04:45:25.608Z,0.51
2023-05-12T04:46:26.595Z,0.51
2023-05-12T04:47:26.587Z,0.51
2023-05-12T04:48:26.595Z,0.51
2023-05-12T04:49:26.601Z,0.51
2023-05-12T04:50:26.554Z,0.50
2023-05-12T04:51:26.554Z,0.50
2023-05-12T04:52:25.533Z,0.51
2023-05-12T04:53:25.533Z,0.51
2023-05-12T04:54:25.532Z,0.51
2023-05-12T04:55:25.514Z,0.51
2023-05-12T04:56:25.484Z,0.51
2023-05-12T04:57:25.506Z,0.51
2023-05-12T04:58:25.496Z,0.51
2023-05-12T04:59:25.482Z,0.51
2023-05-12T05:00:26.466Z,0.50
2023-05-12T05:01:26.498Z,0.51
2023-05-12T05:02:25.487Z,0.51
2023-05-12T05:03:26.566Z,0.50
2023-05-12T05:04:25.455Z,0.52
2023-05-12T05:05:25.442Z,0.50
2023-05-12T05:06:25.433Z,0.52
2023-05-12T05:07:26.414Z,0.50
2023-05-12T05:08:26.451Z,0.51
2023-05-12T05:09:26.407Z,0.53
2023-05-12T05:10:25.394Z,0.53
2023-05-12T05:11:26.404Z,0.53
2023-05-12T05:12:25.374Z,0.53
2023-05-12T05:13:26.370Z,0.52
2023-05-12T05:14:26.355Z,0.53
2023-05-12T05:15:25.385Z,0.53
2023-05-12T05:16:26.383Z,0.51
2023-05-12T05:17:26.436Z,0.51
2023-05-12T05:18:25.441Z,0.51
2023-05-12T05:19:35.255Z,0.51
2023-05-12T05:20:29.130Z,0.51
2023-05-12T05:21:26.339Z,0.51
2023-05-12T05:22:26.355Z,0.51
2023-05-12T05:23:25.342Z,0.50
2023-05-12T05:24:26.297Z,0.50
2023-05-12T05:25:26.301Z,0.49
2023-05-12T05:26:25.274Z,0.50
2023-05-12T05:27:26.307Z,0.50
2023-05-12T05:28:26.312Z,0.51
2023-05-12T05:29:26.253Z,0.52
2023-05-12T05:30:26.297Z,0.50
2023-05-12T05:31:25.281Z,0.53
2023-05-12T05:32:26.277Z,0.50
2023-05-12T05:33:26.247Z,0.51
2023-05-12T05:34:26.302Z,0.51
2023-05-12T05:35:26.246Z,0.55
2023-05-12T05:36:26.477Z,0.53
2023-05-12T05:37:26.182Z,0.52
2023-05-12T05:38:25.192Z,0.52
2023-05-12T05:39:26.181Z,0.53
2023-05-12T05:40:26.439Z,0.54
2023-05-12T05:41:25.168Z,0.54
2023-05-12T05:42:26.177Z,0.55
2023-05-12T05:43:25.169Z,0.56
2023-05-12T05:44:25.176Z,0.52
2023-05-12T05:45:27.645Z,0.56
2023-05-12T05:46:26.208Z,0.59
2023-05-12T05:47:25.163Z,0.57
2023-05-12T05:48:25.100Z,0.50
2023-05-12T05:49:25.134Z,0.53
2023-05-12T05:50:26.120Z,0.57
2023-05-12T05:51:25.219Z,0.52
2023-05-12T05:52:26.157Z,0.55
2023-05-12T05:53:26.133Z,0.59
2023-05-12T05:54:25.067Z,0.60
2023-05-12T05:55:26.088Z,0.62
2023-05-12T05:56:25.054Z,0.64
2023-05-12T05:57:26.047Z,0.88
2023-05-12T05:58:25.056Z,0.72
2023-05-12T05:59:26.046Z,0.62
2023-05-12T06:00:25.086Z,0.66
2023-05-12T06:01:26.010Z,0.61
2023-05-12T06:02:26.140Z,0.53
2023-05-12T06:03:26.124Z,0.57
2023-05-12T06:04:25.108Z,0.50
2023-05-12T06:05:26.015Z,0.50
2023-05-12T06:06:26.043Z,0.75
2023-05-12T06:07:25.979Z,0.57
2023-05-12T06:08:25.992Z,0.50
2023-05-12T06:09:25.964Z,0.50
2023-05-12T06:10:25.974Z,0.52
2023-05-12T06:11:24.978Z,0.61
2023-05-12T06:12:25.947Z,0.51
2023-05-12T06:13:25.951Z,0.54
2023-05-12T06:14:25.932Z,0.50
2023-05-12T06:15:24.925Z,0.51
2023-05-12T06:16:24.940Z,0.54
2023-05-12T06:17:25.956Z,0.55
2023-05-12T06:18:25.977Z,0.50
2023-05-12T06:19:24.901Z,0.52
2023-05-12T06:20:25.936Z,0.53
2023-05-12T06:21:24.920Z,0.55
2023-05-12T06:22:24.878Z,0.51
2023-05-12T06:23:24.893Z,0.51
2023-05-12T06:24:25.919Z,0.51
2023-05-12T06:25:25.881Z,0.52
2023-05-12T06:26:25.883Z,0.50
2023-05-12T06:27:24.952Z,0.50
2023-05-12T06:28:24.973Z,0.51
2023-05-12T06:29:24.974Z,0.51
2023-05-12T06:30:25.942Z,0.52
2023-05-12T06:31:26.037Z,0.51
2023-05-12T06:32:25.065Z,0.54
2023-05-12T06:33:25.121Z,0.56
2023-05-12T06:34:25.189Z,0.54
2023-05-12T06:35:25.222Z,0.57
2023-05-12T06:36:26.296Z,0.58
2023-05-12T06:37:25.334Z,0.54
2023-05-12T06:38:26.402Z,0.53
2023-05-12T06:39:25.507Z,0.57
2023-05-12T06:40:25.540Z,0.54
2023-05-12T06:41:25.582Z,0.53
2023-05-12T06:42:26.615Z,0.53
2023-05-12T06:43:25.706Z,0.60
2023-05-12T06:44:25.729Z,0.60
2023-05-12T06:45:26.776Z,0.54
2023-05-12T06:46:26.873Z,0.54
2023-05-12T06:47:26.902Z,0.55
2023-05-12T06:48:26.963Z,0.51
2023-05-12T06:49:26.992Z,0.51
2023-05-12T06:50:27.109Z,0.52
2023-05-12T06:51:27.106Z,0.53
2023-05-12T06:52:27.126Z,0.57
2023-05-12T06:53:26.179Z,0.57
2023-05-12T06:54:27.179Z,0.62
2023-05-12T06:55:27.179Z,0.62
2023-05-12T06:56:27.484Z,0.64
2023-05-12T06:57:26.240Z,0.68
2023-05-12T06:58:27.340Z,0.67
2023-05-12T06:59:26.376Z,0.69
2023-05-12T07:00:27.509Z,0.72
2023-05-12T07:01:26.582Z,0.73
2023-05-12T07:02:26.775Z,0.75
2023-05-12T07:03:27.647Z,0.76
2023-05-12T07:04:27.622Z,0.77
2023-05-12T07:05:27.743Z,0.76
2023-05-12T07:06:27.782Z,0.76
2023-05-12T07:07:27.730Z,0.77
2023-05-12T07:08:27.783Z,0.79
2023-05-12T07:09:26.884Z,0.78
2023-05-12T07:10:27.848Z,0.77
2023-05-12T07:11:27.904Z,0.76
2023-05-12T07:12:28.033Z,0.78
2023-05-12T07:13:26.972Z,0.79
2023-05-12T07:14:27.012Z,0.79
2023-05-12T07:15:28.825Z,0.80
2023-05-12T07:16:28.154Z,0.80
2023-05-12T07:17:28.204Z,0.80
2023-05-12T07:18:27.193Z,0.78
2023-05-12T07:19:28.200Z,0.79
2023-05-12T07:20:28.207Z,0.80
2023-05-12T07:21:28.291Z,0.80
2023-05-12T07:22:28.283Z,0.80
2023-05-12T07:23:27.297Z,0.81
2023-05-12T07:24:28.398Z,0.81
2023-05-12T07:25:28.393Z,0.81
2023-05-12T07:26:27.399Z,0.85
2023-05-12T07:27:28.354Z,0.82
2023-05-12T07:28:28.421Z,0.82
2023-05-12T07:29:28.394Z,0.82
2023-05-12T07:30:28.405Z,0.83
2023-05-12T07:31:28.484Z,0.82
2023-05-12T07:32:28.440Z,0.83
2023-05-12T07:33:27.448Z,0.84
2023-05-12T07:34:27.465Z,0.83
2023-05-12T07:35:28.451Z,0.86
2023-05-12T07:36:28.478Z,0.86
2023-05-12T07:37:28.633Z,0.87
2023-05-12T07:38:28.562Z,0.88
2023-05-12T07:39:27.508Z,0.88
2023-05-12T07:40:27.540Z,0.88
2023-05-12T07:41:27.570Z,0.87
2023-05-12T07:42:27.582Z,0.89
2023-05-12T07:43:27.545Z,0.87
2023-05-12T07:44:28.564Z,0.90
2023-05-12T07:45:27.544Z,0.88
2023-05-12T07:46:28.558Z,0.91
2023-05-12T07:47:27.556Z,0.85
2023-05-12T07:48:27.520Z,0.89
2023-05-12T07:49:27.527Z,0.86
2023-05-12T07:50:28.558Z,0.85
2023-05-12T07:51:28.003Z,0.85
2023-05-12T07:52:28.574Z,0.80
2023-05-12T07:53:28.619Z,0.78
2023-05-12T07:54:27.612Z,0.74
2023-05-12T07:55:28.662Z,0.75
2023-05-12T07:56:27.651Z,0.70
2023-05-12T07:57:28.680Z,0.69
2023-05-12T07:58:27.765Z,0.69
2023-05-12T07:59:27.774Z,0.72
2023-05-12T08:00:28.802Z,0.68
2023-05-12T08:01:28.819Z,0.67
2023-05-12T08:02:29.073Z,0.68
2023-05-12T08:03:28.089Z,0.71
2023-05-12T08:04:27.960Z,0.70
2023-05-12T08:05:28.950Z,0.67
2023-05-12T08:06:28.012Z,0.68
2023-05-12T08:07:28.002Z,0.67
2023-05-12T08:08:29.051Z,0.67
2023-05-12T08:09:29.055Z,0.69
2023-05-12T08:10:29.104Z,0.71
2023-05-12T08:11:29.082Z,0.74
2023-05-12T08:12:28.072Z,0.74
2023-05-12T08:13:29.111Z,0.75
2023-05-12T08:14:28.075Z,0.76
2023-05-12T08:15:29.092Z,0.77
2023-05-12T08:16:29.187Z,0.76
2023-05-12T08:17:29.479Z,0.77
2023-05-12T08:18:29.129Z,0.79
2023-05-12T08:19:29.097Z,0.76
2023-05-12T08:20:29.085Z,0.78
2023-05-12T08:21:28.113Z,0.76
2023-05-12T08:22:29.109Z,0.75
2023-05-12T08:23:29.084Z,0.76
2023-05-12T08:24:28.108Z,0.76
2023-05-12T08:25:28.085Z,0.77
2023-05-12T08:26:28.766Z,0.76
2023-05-12T08:27:29.081Z,0.76
2023-05-12T08:28:28.128Z,0.77
2023-05-12T08:29:28.136Z,0.75
2023-05-12T08:30:28.137Z,0.74
2023-05-12T08:31:29.373Z,0.76
2023-05-12T08:32:28.268Z,0.75
2023-05-12T08:33:28.221Z,0.78
2023-05-12T08:34:29.257Z,0.76
2023-05-12T08:35:29.322Z,0.76
2023-05-12T08:36:28.366Z,0.78
2023-05-12T08:37:29.432Z,0.75
2023-05-12T08:38:29.460Z,0.75
2023-05-12T08:39:28.514Z,0.76
2023-05-12T08:40:28.556Z,0.78
2023-05-12T08:41:29.627Z,0.78
2023-05-12T08:42:30.008Z,0.81
2023-05-12T08:43:29.757Z,0.75
2023-05-12T08:44:29.795Z,0.78
2023-05-12T08:45:29.942Z,0.76
2023-05-12T08:46:28.956Z,0.75
2023-05-12T08:47:30.333Z,0.72
2023-05-12T08:48:29.059Z,0.73
2023-05-12T08:49:29.119Z,0.84
2023-05-12T08:50:29.214Z,0.88
2023-05-12T08:51:29.259Z,0.91
2023-05-12T08:52:29.320Z,0.88
2023-05-12T08:53:29.351Z,0.87
2023-05-12T08:54:30.460Z,0.93
2023-05-12T08:55:33.523Z,0.88
2023-05-12T08:57:29.969Z,0.89
2023-05-12T08:58:40.380Z,0.89
2023-05-12T08:59:30.447Z,0.89
2023-05-12T09:00:29.450Z,0.90
2023-05-12T09:01:29.475Z,0.85
2023-05-12T09:02:40.890Z,0.86
2023-05-12T09:03:30.547Z,0.88
2023-05-12T09:04:30.551Z,0.85
2023-05-12T09:05:29.417Z,0.86
2023-05-12T09:06:29.419Z,0.87
2023-05-12T09:07:29.473Z,0.91
2023-05-12T09:08:30.388Z,0.96
2023-05-12T09:09:30.380Z,0.92
2023-05-12T09:11:29.379Z,0.97
2023-05-12T09:12:31.392Z,0.93
2023-05-12T09:13:30.405Z,0.93
2023-05-12T09:14:30.385Z,0.94
2023-05-12T09:15:29.342Z,0.95
2023-05-12T09:16:29.449Z,0.90
2023-05-12T09:17:30.468Z,0.92
2023-05-12T09:18:30.369Z,0.96
2023-05-12T09:19:30.405Z,0.98
2023-05-12T09:20:31.983Z,0.97
2023-05-12T09:21:30.300Z,1.02
2023-05-12T09:22:29.310Z,0.98
2023-05-12T09:23:30.287Z,0.92
2023-05-12T09:24:30.295Z,0.96
2023-05-12T09:25:29.256Z,0.99
2023-05-12T09:26:30.323Z,0.94
2023-05-12T09:27:30.279Z,0.95
2023-05-12T09:28:29.252Z,0.93
2023-05-12T09:29:32.521Z,0.95
2023-05-12T09:30:29.230Z,0.95
2023-05-12T09:31:29.332Z,0.95
2023-05-12T09:32:29.234Z,0.90
2023-05-12T09:33:29.221Z,0.88
2023-05-12T09:34:29.212Z,0.74
2023-05-12T09:35:30.304Z,0.57
2023-05-12T09:36:29.205Z,0.52
2023-05-12T09:37:30.237Z,0.50
2023-05-12T09:38:29.193Z,0.51
2023-05-12T09:39:30.215Z,0.50
2023-05-12T09:40:30.218Z,0.51
2023-05-12T09:41:30.244Z,0.52
2023-05-12T09:42:30.281Z,0.51
2023-05-12T09:43:29.346Z,0.53
2023-05-12T09:44:30.417Z,0.49
2023-05-12T09:45:30.402Z,0.51
2023-05-12T09:46:29.486Z,0.55
2023-05-12T09:47:30.574Z,0.55
2023-05-12T09:48:30.450Z,0.51
2023-05-12T09:49:30.507Z,0.50
2023-05-12T09:50:40.756Z,0.52
2023-05-12T09:51:30.622Z,0.50
2023-05-12T09:52:29.579Z,0.44
2023-05-12T09:53:30.503Z,0.42
2023-05-12T09:54:29.548Z,0.40
2023-05-12T09:55:30.490Z,0.40
2023-05-12T09:56:30.477Z,0.46
2023-05-12T09:57:30.486Z,0.53
2023-05-12T09:58:30.473Z,0.50
2023-05-12T09:59:30.465Z,0.50
2023-05-12T10:00:46.145Z,0.51
2023-05-12T10:01:30.450Z,0.49
2023-05-12T10:02:30.618Z,0.48
2023-05-12T10:03:30.507Z,0.51
2023-05-12T10:04:29.455Z,0.50
2023-05-12T10:05:29.412Z,0.46
2023-05-12T10:06:30.447Z,0.50
2023-05-12T10:07:30.455Z,0.49
2023-05-12T10:08:29.371Z,0.52
2023-05-12T10:09:30.376Z,0.52
2023-05-12T10:10:30.366Z,0.51
2023-05-12T10:11:29.366Z,0.50
2023-05-12T10:12:29.444Z,0.52
2023-05-12T10:13:30.443Z,0.53
2023-05-12T10:14:29.471Z,0.55
2023-05-12T10:15:30.458Z,0.54
2023-05-12T10:16:30.498Z,0.56
2023-05-12T10:17:29.515Z,0.60
2023-05-12T10:18:29.522Z,0.60
2023-05-12T10:19:30.469Z,0.56
2023-05-12T10:20:30.465Z,0.54
2023-05-12T10:21:30.460Z,0.53
2023-05-12T10:22:29.444Z,0.54
2023-05-12T10:23:30.561Z,0.52
2023-05-12T10:24:29.443Z,0.53
2023-05-12T10:25:29.445Z,0.50
2023-05-12T10:26:29.459Z,0.55
2023-05-12T10:27:30.479Z,0.55
2023-05-12T10:28:29.448Z,0.61
2023-05-12T10:29:29.490Z,0.59
2023-05-12T10:30:30.505Z,0.60
2023-05-12T10:31:30.497Z,0.60
2023-05-12T10:32:30.511Z,0.59
2023-05-12T10:33:30.513Z,0.61
2023-05-12T10:34:29.542Z,0.56
2023-05-12T10:35:30.574Z,0.61
2023-05-12T10:36:29.607Z,0.60
2023-05-12T10:37:30.690Z,0.62
2023-05-12T10:38:30.656Z,0.57
2023-05-12T10:39:29.729Z,0.62
2023-05-12T10:40:29.677Z,0.64
2023-05-12T10:41:29.679Z,0.67
2023-05-12T10:42:30.068Z,0.72
2023-05-12T10:43:29.721Z,0.74
2023-05-12T10:44:30.742Z,0.66
2023-05-12T10:45:29.783Z,0.85
2023-05-12T10:46:31.095Z,0.71
2023-05-12T10:47:31.112Z,0.78
2023-05-12T10:48:29.838Z,0.72
2023-05-12T10:49:29.801Z,0.72
2023-05-12T10:50:30.849Z,0.79
2023-05-12T10:51:29.904Z,0.83
2023-05-12T10:52:29.934Z,0.80
2023-05-12T10:53:45.191Z,0.75
2023-05-12T10:54:30.981Z,0.72
2023-05-12T10:55:30.245Z,0.67
2023-05-12T10:56:31.263Z,0.71
2023-05-12T10:57:30.195Z,0.80
2023-05-12T10:58:31.324Z,0.78
2023-05-12T10:59:30.135Z,0.80
2023-05-12T11:00:31.399Z,0.71
2023-05-12T11:01:31.661Z,0.69
2023-05-12T11:02:30.624Z,0.64
2023-05-12T11:03:30.471Z,0.79
2023-05-12T11:04:30.986Z,0.64
2023-05-12T11:05:30.294Z,0.65
2023-05-12T11:06:31.223Z,0.63
2023-05-12T11:08:30.647Z,0.70
2023-05-12T11:09:31.278Z,0.72
2023-05-12T11:10:31.327Z,0.73
2023-05-12T11:11:31.479Z,0.77
2023-05-12T11:12:30.900Z,0.74
2023-05-12T11:13:29.899Z,0.73
2023-05-12T11:14:29.890Z,0.72
2023-05-12T11:15:29.926Z,0.80
2023-05-12T11:16:30.977Z,0.75
2023-05-12T11:17:31.055Z,0.81
2023-05-12T11:18:31.042Z,0.71
2023-05-12T11:19:30.114Z,0.70
2023-05-12T11:20:31.047Z,0.74
2023-05-12T11:21:30.340Z,0.86
2023-05-12T11:22:30.270Z,0.80
2023-05-12T11:23:30.306Z,0.75
2023-05-12T11:24:31.367Z,0.80
2023-05-12T11:25:31.475Z,0.79
2023-05-12T11:26:31.482Z,0.76
2023-05-12T11:27:31.677Z,0.78
2023-05-12T11:28:31.570Z,0.70
2023-05-12T11:29:31.589Z,0.69
2023-05-12T11:30:31.622Z,0.74
2023-05-12T11:31:30.773Z,0.75
2023-05-12T11:32:31.777Z,0.74
2023-05-12T11:33:30.742Z,0.71
2023-05-12T11:34:30.781Z,0.77
2023-05-12T11:35:31.855Z,0.85
2023-05-12T11:36:31.822Z,0.77
2023-05-12T11:37:31.869Z,0.81
2023-05-12T11:38:30.933Z,0.84
2023-05-12T11:39:31.963Z,0.82
2023-05-12T11:40:30.989Z,0.79
2023-05-12T11:41:30.988Z,0.79
2023-05-12T11:42:32.080Z,0.73
2023-05-12T11:43:32.184Z,0.68
2023-05-12T11:44:32.028Z,0.73
2023-05-12T11:45:32.158Z,0.73
2023-05-12T11:46:31.252Z,0.73
2023-05-12T11:47:32.071Z,0.65
2023-05-12T11:48:32.063Z,0.65
2023-05-12T11:49:32.094Z,0.71
2023-05-12T11:50:32.091Z,0.67
2023-05-12T11:51:32.127Z,0.73
2023-05-12T11:52:32.086Z,0.74
2023-05-12T11:53:31.097Z,0.73
2023-05-12T11:54:32.113Z,0.79
2023-05-12T11:55:32.155Z,0.74
2023-05-12T11:56:32.202Z,0.79
2023-05-12T11:57:32.247Z,0.86
2023-05-12T11:59:31.325Z,0.76
2023-05-12T12:00:31.293Z,0.73
2023-05-12T12:01:31.293Z,0.70
2023-05-12T12:02:31.449Z,0.62
2023-05-12T12:03:31.405Z,0.67
2023-05-12T12:04:33.571Z,0.61
2023-05-12T12:05:32.325Z,0.55
2023-05-12T12:06:31.345Z,0.52
2023-05-12T12:07:31.396Z,0.50
2023-05-12T12:08:31.373Z,0.56
2023-05-12T12:09:32.357Z,0.58
2023-05-12T12:10:31.359Z,0.57
2023-05-12T12:11:32.408Z,0.57
2023-05-12T12:12:31.386Z,0.58
2023-05-12T12:13:32.462Z,0.60
2023-05-12T12:14:32.405Z,0.76
2023-05-12T12:15:32.484Z,1.28
2023-05-12T12:16:32.684Z,2.21
2023-05-12T12:17:32.531Z,3.04
2023-05-12T12:18:32.639Z,4.01
2023-05-12T12:19:31.582Z,4.29
2023-05-12T12:20:31.596Z,4.62
2023-05-12T12:21:32.587Z,4.85
2023-05-12T12:22:32.627Z,4.23
2023-05-12T12:23:43.878Z,4.89
2023-05-12T12:24:32.690Z,4.91
2023-05-12T12:25:31.660Z,4.96
2023-05-12T12:26:31.637Z,4.53
2023-05-12T12:27:31.635Z,4.04
2023-05-12T12:28:31.645Z,3.84
2023-05-12T12:29:32.664Z,3.74
2023-05-12T12:30:32.627Z,3.84
2023-05-12T12:31:31.707Z,3.93
2023-05-12T12:32:31.661Z,3.99
2023-05-12T12:33:32.593Z,4.23
2023-05-12T12:34:32.580Z,4.36
2023-05-12T12:35:31.576Z,4.56
2023-05-12T12:36:32.582Z,4.85
2023-05-12T12:37:31.623Z,5.14
2023-05-12T12:38:31.553Z,5.13
2023-05-12T12:39:32.538Z,5.03
2023-05-12T12:40:32.537Z,5.17
2023-05-12T12:41:32.530Z,5.37
2023-05-12T12:42:32.533Z,5.23
2023-05-12T12:43:31.566Z,5.33
2023-05-12T12:44:32.504Z,5.55
2023-05-12T12:45:32.516Z,5.57
2023-05-12T12:46:32.533Z,5.58
2023-05-12T12:47:31.579Z,5.64
2023-05-12T12:48:32.486Z,5.56
2023-05-12T12:49:31.484Z,5.65
2023-05-12T12:50:31.473Z,5.65
2023-05-12T12:51:44.609Z,5.74
2023-05-12T12:52:32.459Z,5.75
2023-05-12T12:53:31.444Z,5.78
2023-05-12T12:54:31.447Z,5.81
2023-05-12T12:55:32.432Z,5.87
2023-05-12T12:56:32.421Z,5.80
2023-05-12T12:57:31.414Z,6.04
2023-05-12T12:58:31.514Z,6.08
2023-05-12T12:59:32.401Z,5.88
2023-05-12T13:00:32.408Z,5.96
2023-05-12T13:01:32.431Z,5.82
2023-05-12T13:02:31.443Z,6.09
2023-05-12T13:03:32.493Z,5.95
2023-05-12T13:04:31.380Z,6.02
2023-05-12T13:05:31.360Z,5.86
2023-05-12T13:06:32.364Z,5.86
2023-05-12T13:07:32.358Z,5.89
2023-05-12T13:08:32.344Z,5.90
2023-05-12T13:09:32.341Z,5.98
2023-05-12T13:10:32.332Z,5.92
2023-05-12T13:11:32.314Z,5.98
2023-05-12T13:12:31.317Z,5.94
2023-05-12T13:13:32.338Z,5.88
2023-05-12T13:14:31.311Z,5.88
2023-05-12T13:15:31.277Z,5.87
2023-05-12T13:16:32.304Z,5.75
2023-05-12T13:17:31.328Z,5.75
2023-05-12T13:18:31.345Z,5.80
2023-05-12T13:19:32.304Z,5.84
2023-05-12T13:20:31.243Z,5.82
2023-05-12T13:21:32.239Z,5.73
2023-05-12T13:22:32.255Z,5.71
2023-05-12T13:23:32.238Z,5.67